createdAt,value
2018-04-26T00:01:05.358Z,3.50
2018-04-26T00:03:33.643Z,2.50
2018-04-26T00:06:01.931Z,3.67
2018-04-26T00:08:30.211Z,3.33
2018-04-26T00:10:58.487Z,2.83
2018-04-26T00:13:26.762Z,3.03
2018-04-26T00:15:55.042Z,3.60
2018-04-26T00:18:23.299Z,3.07
2018-04-26T00:20:51.578Z,2.70
2018-04-26T00:23:19.828Z,2.50
2018-04-26T00:25:48.875Z,2.40
2018-04-26T00:28:17.123Z,1.67
2018-04-26T00:30:45.392Z,2.00
2018-04-26T00:33:13.675Z,1.90
2018-04-26T00:35:41.952Z,1.87
2018-04-26T00:38:10.210Z,1.70
2018-04-26T00:40:38.471Z,1.63
2018-04-26T00:43:07.506Z,1.33
2018-04-26T00:45:35.787Z,1.30
2018-04-26T00:48:04.086Z,1.20
2018-04-26T00:50:33.114Z,1.13
2018-04-26T00:53:02.127Z,1.53
2018-04-26T00:55:30.407Z,1.30
2018-04-26T00:57:58.669Z,1.70
2018-04-26T01:00:26.946Z,1.27
2018-04-26T01:02:55.214Z,1.00
2018-04-26T01:05:24.275Z,0.90
2018-04-26T01:07:52.525Z,1.00
2018-04-26T01:10:20.779Z,1.00
2018-04-26T01:12:49.035Z,0.73
2018-04-26T01:15:18.090Z,1.00
2018-04-26T01:17:46.359Z,1.10
2018-04-26T01:20:14.607Z,1.30
2018-04-26T01:22:42.880Z,0.97
2018-04-26T01:25:11.155Z,0.93
2018-04-26T01:27:39.418Z,1.20
2018-04-26T01:30:07.678Z,1.20
2018-04-26T01:32:35.989Z,0.80
2018-04-26T01:35:04.244Z,1.00
2018-04-26T01:37:48.311Z,0.80
2018-04-26T01:40:16.593Z,0.87
2018-04-26T01:42:44.838Z,1.17
2018-04-26T01:45:13.872Z,1.20
2018-04-26T01:47:42.131Z,0.97
2018-04-26T01:50:10.404Z,1.00
2018-04-26T01:52:38.665Z,0.90
2018-04-26T01:55:06.957Z,0.70
2018-04-26T01:57:35.339Z,0.93
2018-04-26T02:00:03.594Z,0.90
2018-04-26T02:02:32.637Z,1.00
2018-04-26T02:05:00.984Z,1.37
2018-04-26T02:07:29.249Z,1.00
2018-04-26T02:09:57.500Z,1.17
2018-04-26T02:12:26.557Z,0.63
2018-04-26T02:14:54.814Z,0.90
2018-04-26T02:17:23.103Z,1.13
2018-04-26T02:19:51.363Z,0.97
2018-04-26T02:22:19.623Z,0.73
2018-04-26T02:24:47.897Z,1.10
2018-04-26T02:27:16.726Z,0.70
2018-04-26T02:29:44.996Z,0.77
2018-04-26T02:32:13.272Z,0.73
2018-04-26T02:34:41.528Z,0.97
2018-04-26T02:37:09.795Z,0.70
2018-04-26T02:39:38.076Z,0.70
2018-04-26T02:42:06.360Z,0.80
2018-04-26T02:44:34.646Z,0.90
2018-04-26T02:47:02.927Z,1.23
2018-04-26T02:49:31.190Z,0.93
2018-04-26T02:51:59.466Z,0.80
2018-04-26T02:54:27.725Z,0.87
2018-04-26T02:56:56.004Z,1.10
2018-04-26T02:59:24.280Z,0.90
2018-04-26T03:01:52.567Z,0.90
2018-04-26T03:04:20.846Z,0.77
2018-04-26T03:06:49.259Z,0.80
2018-04-26T03:09:17.543Z,0.90
2018-04-26T03:11:45.803Z,0.80
2018-04-26T03:14:14.261Z,1.43
2018-04-26T03:16:42.516Z,1.00
2018-04-26T03:19:10.768Z,1.20
2018-04-26T03:21:39.043Z,1.40
2018-04-26T03:24:08.055Z,2.20
2018-04-26T03:26:37.094Z,1.70
2018-04-26T03:29:05.444Z,1.13
2018-04-26T03:31:33.782Z,1.13
2018-04-26T03:34:02.047Z,1.20
2018-04-26T03:36:30.323Z,1.37
2018-04-26T03:38:58.660Z,1.47
2018-04-26T03:41:26.920Z,1.08
2018-04-26T03:43:55.191Z,1.60
2018-04-26T03:46:23.461Z,2.00
2018-04-26T03:48:52.606Z,1.80
2018-04-26T03:51:20.861Z,1.55
2018-04-26T03:53:49.107Z,1.20
2018-04-26T03:56:18.142Z,1.80
2018-04-26T03:58:46.395Z,1.87
2018-04-26T04:01:32.601Z,2.40
2018-04-26T04:04:19.424Z,2.60
2018-04-26T04:06:47.791Z,2.10
2018-04-26T04:09:16.052Z,2.07
2018-04-26T04:11:44.339Z,2.10
2018-04-26T04:14:12.617Z,2.00
2018-04-26T04:16:40.888Z,3.87
2018-04-26T04:19:09.182Z,2.17
2018-04-26T04:21:37.549Z,2.30
2018-04-26T04:24:05.824Z,2.27
2018-04-26T04:26:34.108Z,1.87
2018-04-26T04:29:02.359Z,1.80
2018-04-26T04:31:30.635Z,2.10
2018-04-26T04:33:58.908Z,2.10
2018-04-26T04:36:27.949Z,1.80
2018-04-26T04:38:56.198Z,2.20
2018-04-26T04:41:24.482Z,1.50
2018-04-26T04:43:52.740Z,2.03
2018-04-26T04:46:21.024Z,2.50
2018-04-26T04:48:49.350Z,1.93
2018-04-26T04:51:17.674Z,2.12
2018-04-26T04:53:45.941Z,2.60
2018-04-26T04:56:14.231Z,2.50
2018-04-26T04:58:42.508Z,2.37
2018-04-26T05:01:10.774Z,2.50
2018-04-26T05:03:39.046Z,2.20
2018-04-26T05:06:08.101Z,2.10
2018-04-26T05:08:36.368Z,2.03
2018-04-26T05:11:04.623Z,2.05
2018-04-26T05:13:32.879Z,2.10
2018-04-26T05:16:01.187Z,2.03
2018-04-26T05:18:29.443Z,1.83
2018-04-26T05:20:57.698Z,1.80
2018-04-26T05:23:25.984Z,1.77
2018-04-26T05:25:54.248Z,1.80
2018-04-26T05:28:23.267Z,1.67
2018-04-26T05:30:51.562Z,1.67
2018-04-26T05:33:19.912Z,1.80
2018-04-26T05:35:48.217Z,1.70
2018-04-26T05:38:16.576Z,2.03
2018-04-26T05:40:44.843Z,1.60
2018-04-26T05:43:13.118Z,2.07
2018-04-26T05:45:41.381Z,1.93
2018-04-26T05:48:09.686Z,1.50
2018-04-26T05:50:37.943Z,1.80
2018-04-26T05:53:06.231Z,1.87
2018-04-26T05:55:34.509Z,1.50
2018-04-26T05:58:02.818Z,1.90
2018-04-26T06:00:31.090Z,1.90
2018-04-26T06:02:59.346Z,2.23
2018-04-26T06:05:27.615Z,2.60
2018-04-26T06:07:55.876Z,2.70
2018-04-26T06:10:24.139Z,2.37
2018-04-26T06:12:53.168Z,2.20
2018-04-26T06:15:21.431Z,2.30
2018-04-26T06:17:49.730Z,2.13
2018-04-26T06:20:17.979Z,2.50
2018-04-26T06:22:46.246Z,2.40
2018-04-26T06:25:14.536Z,2.30
2018-04-26T06:27:42.790Z,2.40
2018-04-26T06:30:11.904Z,2.10
2018-04-26T06:32:40.191Z,2.40
2018-04-26T06:35:08.460Z,1.90
2018-04-26T06:37:36.742Z,2.53
2018-04-26T06:40:05.028Z,2.53
2018-04-26T06:42:33.294Z,2.70
2018-04-26T06:45:01.568Z,2.73
2018-04-26T06:47:29.853Z,2.63
2018-04-26T06:49:58.115Z,2.60
2018-04-26T06:52:26.366Z,2.70
2018-04-26T06:54:55.423Z,3.07
2018-04-26T06:57:23.690Z,3.00
2018-04-26T06:59:51.956Z,3.30
2018-04-26T07:02:20.208Z,2.90
2018-04-26T07:04:48.470Z,2.90
2018-04-26T07:07:17.516Z,2.80
2018-04-26T07:09:45.814Z,3.07
2018-04-26T07:12:14.193Z,2.90
2018-04-26T07:14:43.288Z,2.93
2018-04-26T07:17:12.374Z,2.73
2018-04-26T07:19:40.639Z,3.53
2018-04-26T07:22:08.918Z,2.33
2018-04-26T07:24:37.215Z,2.63
2018-04-26T07:27:05.469Z,2.57
2018-04-26T07:29:33.829Z,2.60
2018-04-26T07:32:02.202Z,3.05
2018-04-26T07:34:30.457Z,2.30
2018-04-26T07:36:58.748Z,3.27
2018-04-26T07:39:27.093Z,2.60
2018-04-26T07:41:56.107Z,2.47
2018-04-26T07:44:24.410Z,2.40
2018-04-26T07:46:52.683Z,2.70
2018-04-26T07:49:20.944Z,3.20
2018-04-26T07:51:49.233Z,2.43
2018-04-26T07:54:17.495Z,2.43
2018-04-26T07:56:45.771Z,2.60
2018-04-26T07:59:14.034Z,2.57
2018-04-26T08:01:42.353Z,1.83
2018-04-26T08:04:10.627Z,2.73
2018-04-26T08:06:38.894Z,2.03
2018-04-26T08:09:07.163Z,2.23
2018-04-26T08:11:35.452Z,1.87
2018-04-26T08:14:03.711Z,2.30
2018-04-26T08:16:32.021Z,2.23
2018-04-26T08:19:00.292Z,2.27
2018-04-26T08:21:28.571Z,2.10
2018-04-26T08:23:56.830Z,2.17
2018-04-26T08:26:25.959Z,2.90
2018-04-26T08:28:54.211Z,2.80
2018-04-26T08:31:22.570Z,1.83
2018-04-26T08:33:50.843Z,1.60
2018-04-26T08:36:19.225Z,1.50
2018-04-26T08:38:47.480Z,1.73
2018-04-26T08:41:15.744Z,1.50
2018-04-26T08:43:44.795Z,0.93
2018-04-26T08:46:13.063Z,0.60
2018-04-26T08:48:41.313Z,0.70
2018-04-26T08:51:09.575Z,0.60
2018-04-26T08:53:37.831Z,0.60
2018-04-26T08:56:06.148Z,0.40
2018-04-26T08:58:34.411Z,0.47
2018-04-26T09:01:02.679Z,0.40
2018-04-26T09:03:31.793Z,0.40
2018-04-26T09:06:00.052Z,0.57
2018-04-26T09:08:28.316Z,0.50
2018-04-26T09:10:57.387Z,0.80
2018-04-26T09:13:25.728Z,0.70
2018-04-26T09:15:54.009Z,0.53
2018-04-26T09:18:22.267Z,0.73
2018-04-26T09:20:50.535Z,0.90
2018-04-26T09:23:18.823Z,0.60
2018-04-26T09:25:47.087Z,0.70
2018-04-26T09:28:15.353Z,0.70
2018-04-26T09:30:44.470Z,0.50
2018-04-26T09:33:12.722Z,0.60
2018-04-26T09:35:41.767Z,0.80
2018-04-26T09:38:10.040Z,0.70
2018-04-26T09:40:38.303Z,0.87
2018-04-26T09:43:06.569Z,0.80
2018-04-26T09:45:34.943Z,0.60
2018-04-26T09:48:03.236Z,0.90
2018-04-26T09:50:31.509Z,0.90
2018-04-26T09:52:59.874Z,1.20
2018-04-26T09:55:28.181Z,0.90
2018-04-26T09:57:56.470Z,0.90
2018-04-26T10:00:28.575Z,1.10
2018-04-26T10:02:57.620Z,1.30
2018-04-26T10:05:31.558Z,1.60
2018-04-26T10:07:59.831Z,1.50
2018-04-26T10:10:28.107Z,1.63
2018-04-26T10:12:56.431Z,1.77
2018-04-26T10:15:24.714Z,1.83
2018-04-26T10:17:53.010Z,1.90
2018-04-26T10:20:21.287Z,2.07
2018-04-26T10:22:49.633Z,2.43
2018-04-26T10:25:19.771Z,2.20
2018-04-26T10:27:48.039Z,2.40
2018-04-26T10:30:16.318Z,2.50
2018-04-26T10:32:44.600Z,3.30
2018-04-26T10:35:12.870Z,3.43
2018-04-26T10:37:41.147Z,3.27
2018-04-26T10:40:09.394Z,2.70
2018-04-26T10:42:37.667Z,2.30
2018-04-26T10:45:06.795Z,2.10
2018-04-26T10:47:35.047Z,2.00
2018-04-26T10:50:03.303Z,2.23
2018-04-26T10:52:32.359Z,2.50
2018-04-26T10:55:00.616Z,2.50
2018-04-26T10:57:28.880Z,2.40
2018-04-26T10:59:57.163Z,2.43
2018-04-26T11:02:25.422Z,2.00
2018-04-26T11:04:53.728Z,2.20
2018-04-26T11:07:22.008Z,2.63
2018-04-26T11:09:50.395Z,2.10
2018-04-26T11:12:18.671Z,1.70
2018-04-26T11:14:46.935Z,2.47
2018-04-26T11:17:15.251Z,2.22
2018-04-26T11:19:43.496Z,4.37
2018-04-26T11:22:11.770Z,1.90
2018-04-26T11:24:40.035Z,1.73
2018-04-26T11:27:08.576Z,2.10
2018-04-26T11:29:36.680Z,2.33
2018-04-26T11:32:04.952Z,2.47
2018-04-26T11:34:33.246Z,1.90
2018-04-26T11:37:01.613Z,2.57
2018-04-26T11:39:29.886Z,2.50
2018-04-26T11:41:58.329Z,2.30
2018-04-26T11:44:27.426Z,1.90
2018-04-26T11:46:55.760Z,2.27
2018-04-26T11:49:24.129Z,1.97
2018-04-26T11:51:52.476Z,1.70
2018-04-26T11:54:20.799Z,2.00
2018-04-26T11:56:49.178Z,2.00
2018-04-26T11:59:17.523Z,1.43
2018-04-26T12:01:45.867Z,1.80
2018-04-26T12:04:15.044Z,1.57
2018-04-26T12:06:43.365Z,1.57
2018-04-26T12:09:11.643Z,1.83
2018-04-26T12:11:40.698Z,1.73
2018-04-26T12:14:09.028Z,1.70
2018-04-26T12:16:37.322Z,1.20
2018-04-26T12:19:05.593Z,1.50
2018-04-26T12:21:33.971Z,1.20
2018-04-26T12:24:02.390Z,1.30
2018-04-26T12:26:30.643Z,1.57
2018-04-26T12:28:58.918Z,1.30
2018-04-26T12:31:27.192Z,1.40
2018-04-26T12:33:55.459Z,1.33
2018-04-26T12:36:23.831Z,1.90
2018-04-26T12:38:52.215Z,1.50
2018-04-26T12:41:20.483Z,1.40
2018-04-26T12:43:48.891Z,1.77
2018-04-26T12:46:17.167Z,1.37
2018-04-26T12:48:45.426Z,1.50
2018-04-26T12:51:13.716Z,1.17
2018-04-26T12:53:41.979Z,1.43
2018-04-26T12:56:10.271Z,1.27
2018-04-26T12:58:38.547Z,1.40
2018-04-26T13:01:06.811Z,1.40
2018-04-26T13:03:35.080Z,1.30
2018-04-26T13:06:03.350Z,1.50
2018-04-26T13:08:31.730Z,1.70
2018-04-26T13:10:59.994Z,1.43
2018-04-26T13:13:28.381Z,1.03
2018-04-26T13:15:56.660Z,1.80
2018-04-26T13:18:24.921Z,1.20
2018-04-26T13:20:53.202Z,1.30
2018-04-26T13:23:21.485Z,1.23
2018-04-26T13:25:49.742Z,1.33
2018-04-26T13:28:18.030Z,1.27
2018-04-26T13:30:46.316Z,0.90
2018-04-26T13:33:14.596Z,1.07
2018-04-26T13:35:42.871Z,1.20
2018-04-26T13:38:11.134Z,0.83
2018-04-26T13:40:39.419Z,1.60
2018-04-26T13:43:07.678Z,0.90
2018-04-26T13:45:35.955Z,1.23
2018-04-26T13:48:04.239Z,1.67
2018-04-26T13:50:32.574Z,1.17
2018-04-26T13:53:00.826Z,0.87
2018-04-26T13:55:29.102Z,1.10
2018-04-26T13:57:57.390Z,0.90
2018-04-26T14:00:26.896Z,0.70
2018-04-26T14:02:55.147Z,1.10
2018-04-26T14:05:23.466Z,1.20
2018-04-26T14:07:51.791Z,0.70
2018-04-26T14:10:20.068Z,1.20
2018-04-26T14:12:48.349Z,0.87
2018-04-26T14:15:16.603Z,0.90
2018-04-26T14:17:44.912Z,0.70
2018-04-26T14:20:13.171Z,0.80
2018-04-26T14:22:41.447Z,0.60
2018-04-26T14:25:09.726Z,0.70
2018-04-26T14:27:37.999Z,1.10
2018-04-26T14:30:06.263Z,1.13
2018-04-26T14:32:34.542Z,1.13
2018-04-26T14:35:02.799Z,0.50
2018-04-26T14:37:31.831Z,0.70
2018-04-26T14:40:00.196Z,0.73
2018-04-26T14:42:28.459Z,1.10
2018-04-26T14:44:56.745Z,1.10
2018-04-26T14:47:24.999Z,0.90
2018-04-26T14:49:54.039Z,0.80
2018-04-26T14:52:22.325Z,0.93
2018-04-26T14:54:50.582Z,1.10
2018-04-26T14:57:18.867Z,1.10
2018-04-26T14:59:47.131Z,0.90
2018-04-26T15:02:15.423Z,0.93
2018-04-26T15:04:43.780Z,1.00
2018-04-26T15:07:12.068Z,1.13
2018-04-26T15:09:40.344Z,0.93
2018-04-26T15:12:08.711Z,0.63
2018-04-26T15:14:36.975Z,0.90
2018-04-26T15:17:05.234Z,0.98
2018-04-26T15:19:34.365Z,0.80
2018-04-26T15:22:02.632Z,0.90
2018-04-26T15:24:30.920Z,0.80
2018-04-26T15:26:59.197Z,0.70
2018-04-26T15:29:27.463Z,0.70
2018-04-26T15:31:55.783Z,0.90
2018-04-26T15:34:24.000Z,0.70
2018-04-26T15:36:52.278Z,0.87
2018-04-26T15:39:20.551Z,0.77
2018-04-26T15:41:48.823Z,0.83
2018-04-26T15:44:17.929Z,0.90
2018-04-26T15:46:46.124Z,0.80
2018-04-26T15:49:14.455Z,0.60
2018-04-26T15:51:42.735Z,0.67
2018-04-26T15:54:29.432Z,0.90
2018-04-26T15:57:13.223Z,0.60
2018-04-26T15:59:59.481Z,0.80
2018-04-26T16:03:02.768Z,0.80
2018-04-26T16:05:49.015Z,1.07
2018-04-26T16:08:37.554Z,0.83
2018-04-26T16:11:23.713Z,0.60
2018-04-26T16:14:05.412Z,0.80
2018-04-26T16:20:18.907Z,0.57
2018-04-26T16:23:10.665Z,0.70
2018-04-26T16:25:56.726Z,0.73
2018-04-26T16:28:48.559Z,0.90
2018-04-26T16:31:40.521Z,0.50
2018-04-26T16:34:26.788Z,0.60
2018-04-26T16:37:12.741Z,1.10
2018-04-26T16:39:40.954Z,1.00
2018-04-26T16:42:09.331Z,1.17
2018-04-26T16:44:37.631Z,1.00
2018-04-26T16:49:41.225Z,1.20
2018-04-26T16:52:09.491Z,1.20
2018-04-26T16:54:37.751Z,0.87
2018-04-26T16:57:06.791Z,1.00
2018-04-26T16:59:35.146Z,0.97
2018-04-26T17:02:03.527Z,1.30
2018-04-26T17:04:31.887Z,1.20
2018-04-26T17:07:00.256Z,1.30
2018-04-26T17:09:28.477Z,1.33
2018-04-26T17:11:56.747Z,0.90
2018-04-26T17:14:25.116Z,1.00
2018-04-26T17:16:53.392Z,0.90
2018-04-26T17:19:21.663Z,1.33
2018-04-26T17:21:49.943Z,0.63
2018-04-26T17:24:18.230Z,1.00
2018-04-26T17:26:46.602Z,1.00
2018-04-26T17:29:14.985Z,1.07
2018-04-26T17:31:43.252Z,1.40
2018-04-26T17:34:11.536Z,0.97
2018-04-26T17:36:39.861Z,0.83
2018-04-26T17:39:08.967Z,0.60
2018-04-26T17:41:37.317Z,1.00
2018-04-26T17:44:06.220Z,0.80
2018-04-26T17:46:35.261Z,0.90
2018-04-26T17:49:04.574Z,0.90
2018-04-26T17:51:33.065Z,0.90
2018-04-26T17:54:02.917Z,1.33
2018-04-26T17:56:32.817Z,0.82
2018-04-26T17:59:01.734Z,1.40
2018-04-26T18:01:31.381Z,1.00
2018-04-26T18:04:02.190Z,0.60
2018-04-26T18:06:31.930Z,0.90
2018-04-26T18:09:02.030Z,1.13
2018-04-26T18:11:32.008Z,1.20
2018-04-26T18:14:01.894Z,1.00
2018-04-26T18:16:31.783Z,1.20
2018-04-26T18:19:02.492Z,1.10
2018-04-26T18:21:32.299Z,1.57
2018-04-26T18:24:02.348Z,1.60
2018-04-26T18:26:33.773Z,1.00
2018-04-26T18:29:03.776Z,1.47
2018-04-26T18:31:33.631Z,2.07
2018-04-26T18:34:03.480Z,2.20
2018-04-26T18:36:33.412Z,1.60
2018-04-26T18:39:03.409Z,1.70
2018-04-26T18:41:33.355Z,1.27
2018-04-26T18:44:03.312Z,1.60
2018-04-26T18:46:33.137Z,3.10
2018-04-26T18:49:03.776Z,1.97
2018-04-26T18:51:33.836Z,0.90
2018-04-26T18:54:03.767Z,0.53
2018-04-26T18:56:34.447Z,0.87
2018-04-26T18:59:04.391Z,0.80
2018-04-26T19:01:34.257Z,0.87
2018-04-26T19:04:04.135Z,0.60
2018-04-26T19:06:33.886Z,0.70
2018-04-26T19:09:04.079Z,0.80
2018-04-26T19:11:34.643Z,0.93
2018-04-26T19:14:04.815Z,1.20
2018-04-26T19:16:34.662Z,1.17
2018-04-26T19:19:04.672Z,1.00
2018-04-26T19:21:34.669Z,1.13
2018-04-26T19:24:05.649Z,1.00
2018-04-26T19:26:35.553Z,0.63
2018-04-26T19:29:05.534Z,0.80
2018-04-26T19:31:36.156Z,0.77
2018-04-26T19:34:08.504Z,0.70
2018-04-26T19:36:38.844Z,0.73
2018-04-26T19:39:08.857Z,1.10
2018-04-26T19:41:38.589Z,0.77
2018-04-26T19:44:08.601Z,0.77
2018-04-26T19:46:38.525Z,1.37
2018-04-26T19:49:09.219Z,1.13
2018-04-26T19:51:39.054Z,0.83
2018-04-26T19:54:09.714Z,0.67
2018-04-26T19:56:39.483Z,1.13
2018-04-26T19:59:09.560Z,1.10
2018-04-26T20:01:39.496Z,1.00
2018-04-26T20:04:09.511Z,0.93
2018-04-26T20:06:39.529Z,1.03
2018-04-26T20:09:09.665Z,0.70
2018-04-26T20:11:39.756Z,0.90
2018-04-26T20:14:09.751Z,0.80
2018-04-26T20:16:40.077Z,1.20
2018-04-26T20:19:10.880Z,2.10
2018-04-26T20:21:40.711Z,1.80
2018-04-26T20:24:11.648Z,1.37
2018-04-26T20:26:40.911Z,0.90
2018-04-26T20:29:11.152Z,1.20
2018-04-26T20:31:40.468Z,1.27
2018-04-26T20:34:10.648Z,0.87
2018-04-26T20:36:39.943Z,1.47
2018-04-26T20:39:09.182Z,2.95
2018-04-26T20:44:49.707Z,1.37
2018-04-26T20:47:19.037Z,1.40
2018-04-26T20:49:48.895Z,1.10
2018-04-26T20:52:18.852Z,1.00
2018-04-26T20:54:47.220Z,1.53
2018-04-26T20:57:15.731Z,1.53
2018-04-26T20:59:44.852Z,1.13
2018-04-26T21:02:13.203Z,1.33
2018-04-26T21:04:41.460Z,1.07
2018-04-26T21:07:09.751Z,1.00
2018-04-26T21:09:38.016Z,2.20
2018-04-26T21:12:06.327Z,2.13
2018-04-26T21:14:35.372Z,1.13
2018-04-26T21:17:03.676Z,1.27
2018-04-26T21:19:31.935Z,1.33
2018-04-26T21:22:00.208Z,1.23
2018-04-26T21:24:28.483Z,1.27
2018-04-26T21:26:56.736Z,1.00
2018-04-26T21:29:25.005Z,0.80
2018-04-26T21:31:53.296Z,1.13
2018-04-26T21:34:21.546Z,1.40
2018-04-26T21:36:49.826Z,0.90
2018-04-26T21:39:21.284Z,1.40
2018-04-26T21:41:49.603Z,0.90
2018-04-26T21:44:17.856Z,0.80
2018-04-26T21:46:46.123Z,1.00
2018-04-26T21:49:14.398Z,1.20
2018-04-26T21:51:48.232Z,1.40
2018-04-26T21:54:21.974Z,1.17
2018-04-26T21:56:56.641Z,1.07
2018-04-26T21:59:30.539Z,1.20
2018-04-26T22:02:04.231Z,1.00
2018-04-26T22:07:43.119Z,1.23
2018-04-26T22:10:11.395Z,1.13
2018-04-26T22:12:39.671Z,1.40
2018-04-26T22:15:07.931Z,1.50
2018-04-26T22:17:36.208Z,1.20
2018-04-26T22:20:04.468Z,1.30
2018-04-26T22:22:32.753Z,1.50
2018-04-26T22:25:01.024Z,1.50
2018-04-26T22:27:29.273Z,1.70
2018-04-26T22:29:58.340Z,1.30
2018-04-26T22:32:26.597Z,1.70
2018-04-26T22:34:54.947Z,1.73
2018-04-26T22:37:23.348Z,2.13
2018-04-26T22:39:51.590Z,2.10
2018-04-26T22:42:19.877Z,1.60
2018-04-26T22:44:48.131Z,1.10
2018-04-26T22:47:17.319Z,1.37
2018-04-26T22:49:45.561Z,1.20
2018-04-26T22:52:13.823Z,1.50
2018-04-26T22:54:42.077Z,1.60
2018-04-26T22:57:10.357Z,1.20
2018-04-26T22:59:38.612Z,1.70
2018-04-26T23:02:06.974Z,1.70
2018-04-26T23:04:35.271Z,1.57
2018-04-26T23:07:03.539Z,1.40
2018-04-26T23:09:32.564Z,1.40
2018-04-26T23:12:00.839Z,1.40
2018-04-26T23:14:29.123Z,1.37
2018-04-26T23:16:57.402Z,1.40
2018-04-26T23:19:25.664Z,1.63
2018-04-26T23:21:53.923Z,1.30
2018-04-26T23:24:22.191Z,1.30
2018-04-26T23:26:50.464Z,1.50
2018-04-26T23:29:19.484Z,1.87
2018-04-26T23:31:47.755Z,1.70
2018-04-26T23:34:16.017Z,1.57
2018-04-26T23:36:44.281Z,1.60
2018-04-26T23:39:13.319Z,1.60
2018-04-26T23:41:41.578Z,1.50
2018-04-26T23:44:09.831Z,1.67
2018-04-26T23:46:38.103Z,1.20
2018-04-26T23:49:07.126Z,1.50
2018-04-26T23:51:35.383Z,1.30
2018-04-26T23:54:03.673Z,1.80
2018-04-26T23:56:32.127Z,1.40
2018-04-26T23:59:00.419Z,1.10
